createdAt,value
2023-05-04T00:02:01.541Z,52.18
2023-05-04T00:05:08.633Z,52.38
2023-05-04T00:08:15.167Z,52.53
2023-05-04T00:11:20.954Z,52.42
2023-05-04T00:14:30.099Z,52.57
2023-05-04T00:17:35.786Z,52.27
2023-05-04T00:20:42.241Z,52.30
2023-05-04T00:23:48.010Z,52.84
2023-05-04T00:26:54.790Z,52.59
2023-05-04T00:30:03.280Z,52.15
2023-05-04T00:33:09.927Z,52.35
2023-05-04T00:36:16.946Z,52.10
2023-05-04T00:39:23.456Z,52.37
2023-05-04T00:42:29.021Z,52.53
2023-05-04T00:45:38.715Z,52.66
2023-05-04T00:48:46.443Z,52.45
2023-05-04T00:51:54.587Z,52.47
2023-05-04T00:55:01.250Z,52.70
2023-05-04T00:58:09.285Z,51.99
2023-05-04T01:01:17.575Z,51.75
2023-05-04T01:04:24.149Z,52.05
2023-05-04T01:07:41.718Z,51.85
2023-05-04T01:10:59.693Z,51.65
2023-05-04T01:14:05.661Z,51.62
2023-05-04T01:17:15.639Z,51.54
2023-05-04T01:20:22.397Z,51.77
2023-05-04T01:23:31.097Z,51.69
2023-05-04T01:26:46.549Z,51.88
2023-05-04T01:30:03.809Z,51.69
2023-05-04T01:33:12.116Z,51.17
2023-05-04T01:36:18.875Z,51.58
2023-05-04T01:39:28.025Z,51.91
2023-05-04T01:42:33.516Z,51.83
2023-05-04T01:45:40.175Z,51.37
2023-05-04T01:48:45.696Z,51.74
2023-05-04T01:51:52.341Z,51.81
2023-05-04T01:55:01.074Z,52.09
2023-05-04T01:58:07.594Z,52.16
2023-05-04T02:01:13.132Z,52.49
2023-05-04T02:04:19.870Z,52.51
2023-05-04T02:07:25.589Z,52.55
2023-05-04T02:10:35.193Z,52.79
2023-05-04T02:13:40.767Z,52.72
2023-05-04T02:16:47.192Z,52.48
2023-05-04T02:19:52.708Z,52.50
2023-05-04T02:22:59.062Z,53.02
2023-05-04T02:26:07.411Z,53.17
2023-05-04T02:29:13.785Z,52.62
2023-05-04T02:32:19.244Z,52.57
2023-05-04T02:35:25.916Z,52.44
2023-05-04T02:38:31.957Z,52.37
2023-05-04T02:41:41.068Z,52.71
2023-05-04T02:44:46.582Z,52.26
2023-05-04T02:47:53.001Z,52.13
2023-05-04T02:50:58.574Z,53.27
2023-05-04T02:54:04.988Z,52.63
2023-05-04T02:57:13.542Z,52.33
2023-05-04T03:00:20.912Z,53.13
2023-05-04T03:03:26.520Z,52.36
2023-05-04T03:06:32.996Z,53.03
2023-05-04T03:09:38.572Z,53.21
2023-05-04T03:12:48.388Z,52.33
2023-05-04T03:15:53.959Z,53.19
2023-05-04T03:19:00.691Z,52.05
2023-05-04T03:22:06.501Z,52.28
2023-05-04T03:25:13.456Z,51.97
2023-05-04T03:28:22.198Z,52.02
2023-05-04T03:31:29.336Z,52.56
2023-05-04T03:34:35.068Z,52.26
2023-05-04T03:37:44.120Z,52.15
2023-05-04T03:40:49.844Z,52.77
2023-05-04T03:43:59.133Z,51.62
2023-05-04T03:47:04.709Z,52.52
2023-05-04T03:50:13.551Z,51.68
2023-05-04T03:53:21.044Z,52.16
2023-05-04T03:56:27.490Z,51.48
2023-05-04T03:59:36.081Z,51.90
2023-05-04T04:02:45.760Z,50.98
2023-05-04T04:05:56.769Z,51.23
2023-05-04T04:09:05.681Z,51.12
2023-05-04T04:12:11.706Z,51.16
2023-05-04T04:15:20.888Z,50.91
2023-05-04T04:18:27.670Z,50.30
2023-05-04T04:21:34.095Z,51.13
2023-05-04T04:24:39.640Z,50.40
2023-05-04T04:27:45.951Z,50.82
2023-05-04T04:30:54.271Z,50.29
2023-05-04T04:34:01.015Z,50.12
2023-05-04T04:37:06.524Z,49.96
2023-05-04T04:40:14.304Z,49.00
2023-05-04T04:43:19.774Z,49.69
2023-05-04T04:46:28.926Z,50.09
2023-05-04T04:49:35.273Z,48.99
2023-05-04T04:52:41.958Z,48.84
2023-05-04T04:55:48.957Z,48.75
2023-05-04T04:58:55.228Z,48.62
2023-05-04T05:02:04.323Z,48.56
2023-05-04T05:05:13.139Z,48.34
2023-05-04T05:08:18.880Z,48.45
2023-05-04T05:11:26.182Z,47.93
2023-05-04T05:14:31.982Z,47.98
2023-05-04T05:17:41.035Z,48.14
2023-05-04T05:20:46.592Z,47.91
2023-05-04T05:23:53.052Z,47.63
2023-05-04T05:26:58.555Z,47.52
2023-05-04T05:30:06.988Z,46.91
2023-05-04T05:33:15.754Z,47.65
2023-05-04T05:36:22.599Z,46.95
2023-05-04T05:39:29.394Z,46.36
2023-05-04T05:42:36.207Z,46.70
2023-05-04T05:45:41.934Z,46.43
2023-05-04T05:48:51.333Z,45.34
2023-05-04T05:51:56.874Z,45.76
2023-05-04T05:55:03.239Z,45.52
2023-05-04T05:58:11.399Z,44.47
2023-05-04T06:01:17.763Z,43.68
2023-05-04T06:04:26.073Z,44.07
2023-05-04T06:07:32.703Z,43.31
2023-05-04T06:10:38.600Z,44.51
2023-05-04T06:13:45.223Z,43.49
2023-05-04T06:16:50.897Z,43.27
2023-05-04T06:20:00.248Z,43.28
2023-05-04T06:23:06.192Z,42.81
2023-05-04T06:26:12.873Z,43.11
2023-05-04T06:29:18.541Z,42.80
2023-05-04T06:32:25.092Z,40.83
2023-05-04T06:35:35.054Z,40.49
2023-05-04T06:38:41.481Z,40.18
2023-05-04T06:41:47.333Z,40.30
2023-05-04T06:44:56.377Z,39.80
2023-05-04T06:48:01.963Z,39.81
2023-05-04T06:51:11.344Z,39.25
2023-05-04T06:54:16.892Z,38.65
2023-05-04T06:57:23.237Z,39.36
2023-05-04T07:00:29.340Z,38.81
2023-05-04T07:03:36.108Z,39.07
2023-05-04T07:06:45.760Z,38.33
2023-05-04T07:09:52.176Z,38.87
2023-05-04T07:12:58.209Z,39.34
2023-05-04T07:16:04.799Z,38.01
2023-05-04T07:19:10.710Z,37.92
2023-05-04T07:22:21.190Z,38.35
2023-05-04T07:25:27.779Z,38.01
2023-05-04T07:28:35.942Z,37.91
2023-05-04T07:31:41.771Z,37.96
2023-05-04T07:34:48.590Z,38.61
2023-05-04T07:37:56.864Z,38.04
2023-05-04T07:41:03.454Z,38.70
2023-05-04T07:44:11.413Z,37.95
2023-05-04T07:47:17.867Z,37.96
2023-05-04T07:50:23.657Z,37.84
2023-05-04T07:53:33.033Z,38.17
2023-05-04T07:56:38.836Z,37.00
2023-05-04T07:59:45.161Z,37.36
2023-05-04T08:02:51.141Z,37.80
2023-05-04T08:05:57.785Z,37.54
2023-05-04T08:09:06.532Z,36.83
2023-05-04T08:12:13.217Z,37.52
2023-05-04T08:15:18.792Z,37.39
2023-05-04T08:18:25.211Z,37.04
2023-05-04T08:21:31.530Z,36.61
2023-05-04T08:24:40.856Z,36.20
2023-05-04T08:27:46.732Z,36.60
2023-05-04T08:30:53.149Z,36.30
2023-05-04T08:33:58.658Z,36.34
2023-05-04T08:37:05.075Z,36.73
2023-05-04T08:40:19.449Z,37.06
2023-05-04T08:43:26.424Z,36.92
2023-05-04T08:46:36.593Z,37.12
2023-05-04T08:49:43.021Z,37.06
2023-05-04T08:52:50.009Z,36.27
2023-05-04T08:56:04.795Z,36.64
2023-05-04T08:59:21.736Z,36.36
2023-05-04T09:02:29.620Z,36.82
2023-05-04T09:05:35.893Z,36.39
2023-05-04T09:08:42.827Z,36.70
2023-05-04T09:11:51.184Z,37.03
2023-05-04T09:14:57.716Z,36.49
2023-05-04T09:18:07.340Z,36.50
2023-05-04T09:21:15.713Z,36.08
2023-05-04T09:24:30.021Z,35.47
2023-05-04T09:27:40.782Z,35.54
2023-05-04T09:30:47.118Z,35.32
2023-05-04T09:33:53.842Z,35.17
2023-05-04T09:37:03.216Z,35.50
2023-05-04T09:40:11.716Z,34.73
2023-05-04T09:43:20.125Z,35.35
2023-05-04T09:46:26.869Z,35.04
2023-05-04T09:49:37.282Z,35.67
2023-05-04T09:52:46.816Z,35.91
2023-05-04T09:56:12.145Z,35.16
2023-05-04T09:59:24.028Z,35.41
2023-05-04T10:02:30.305Z,35.43
2023-05-04T10:05:37.046Z,35.41
2023-05-04T10:08:44.241Z,35.33
2023-05-04T10:11:52.227Z,35.66
2023-05-04T10:15:01.602Z,35.64
2023-05-04T10:18:28.449Z,35.07
2023-05-04T10:21:52.162Z,34.42
2023-05-04T10:25:47.526Z,34.78
2023-05-04T10:29:15.316Z,35.69
2023-05-04T10:32:26.250Z,35.81
2023-05-04T10:35:32.591Z,34.13
2023-05-04T10:38:41.307Z,33.80
2023-05-04T10:42:09.300Z,34.17
2023-05-04T10:45:16.074Z,34.33
2023-05-04T10:48:24.499Z,34.75
2023-05-04T10:51:42.381Z,35.38
2023-05-04T10:55:04.329Z,35.78
2023-05-04T10:58:11.850Z,35.59
2023-05-04T11:01:17.625Z,36.00
2023-05-04T11:04:27.723Z,35.49
2023-05-04T11:07:39.437Z,35.15
2023-05-04T11:10:46.810Z,35.30
2023-05-04T11:13:53.497Z,34.94
2023-05-04T11:17:26.583Z,34.82
2023-05-04T11:20:36.450Z,34.25
2023-05-04T11:23:43.990Z,34.54
2023-05-04T11:26:51.233Z,33.83
2023-05-04T11:30:02.633Z,33.93
2023-05-04T11:33:16.036Z,33.97
2023-05-04T11:36:27.211Z,33.68
2023-05-04T11:39:35.570Z,34.50
2023-05-04T11:42:43.234Z,33.98
2023-05-04T11:45:54.404Z,34.39
2023-05-04T11:49:02.058Z,33.98
2023-05-04T11:52:14.818Z,33.46
2023-05-04T11:55:34.229Z,33.24
2023-05-04T11:58:41.466Z,33.63
2023-05-04T12:01:48.195Z,33.79
2023-05-04T12:04:54.171Z,33.49
2023-05-04T12:08:04.080Z,33.52
2023-05-04T12:11:22.381Z,32.90
2023-05-04T12:14:28.800Z,32.74
2023-05-04T12:17:43.935Z,32.81
2023-05-04T12:20:50.584Z,33.63
2023-05-04T12:23:59.855Z,33.58
2023-05-04T12:27:06.643Z,32.98
2023-05-04T12:30:14.002Z,33.26
2023-05-04T12:33:20.467Z,33.74
2023-05-04T12:36:25.988Z,33.81
2023-05-04T12:39:35.517Z,32.99
2023-05-04T12:42:42.619Z,33.60
2023-05-04T12:45:49.173Z,33.35
2023-05-04T12:48:54.659Z,33.38
2023-05-04T12:52:07.009Z,34.39
2023-05-04T12:55:15.468Z,33.77
2023-05-04T12:58:22.307Z,34.06
2023-05-04T13:01:28.151Z,33.92
2023-05-04T13:04:34.614Z,33.99
2023-05-04T13:07:40.146Z,33.40
2023-05-04T13:10:49.490Z,33.29
2023-05-04T13:13:56.102Z,32.81
2023-05-04T13:17:03.004Z,33.37
2023-05-04T13:20:10.268Z,33.50
2023-05-04T13:23:17.271Z,32.85
2023-05-04T13:26:25.560Z,32.92
2023-05-04T13:29:31.972Z,33.23
2023-05-04T13:32:37.604Z,33.19
2023-05-04T13:35:45.041Z,32.95
2023-05-04T13:38:50.636Z,33.48
2023-05-04T13:41:59.987Z,33.13
2023-05-04T13:45:05.930Z,32.77
2023-05-04T13:48:12.896Z,32.12
2023-05-04T13:51:18.530Z,32.99
2023-05-04T13:54:26.176Z,32.73
2023-05-04T13:57:34.500Z,32.91
2023-05-04T14:00:40.989Z,33.10
2023-05-04T14:03:46.974Z,33.11
2023-05-04T14:06:54.260Z,32.52
2023-05-04T14:10:00.005Z,32.37
2023-05-04T14:13:09.374Z,32.30
2023-05-04T14:16:15.153Z,32.57
2023-05-04T14:19:21.607Z,32.01
2023-05-04T14:22:27.111Z,32.02
2023-05-04T14:25:33.586Z,31.54
2023-05-04T14:28:41.946Z,30.78
2023-05-04T14:31:48.419Z,31.29
2023-05-04T14:34:54.361Z,31.89
2023-05-04T14:38:00.812Z,31.75
2023-05-04T14:41:08.667Z,32.27
2023-05-04T14:44:18.159Z,32.77
2023-05-04T14:47:23.742Z,32.52
2023-05-04T14:50:30.300Z,32.13
2023-05-04T14:53:37.270Z,31.90
2023-05-04T14:56:48.028Z,31.75
2023-05-04T14:59:56.306Z,32.26
2023-05-04T15:03:02.715Z,32.29
2023-05-04T15:06:10.698Z,31.93
2023-05-04T15:09:17.025Z,32.75
2023-05-04T15:12:22.663Z,31.75
2023-05-04T15:15:31.962Z,31.68
2023-05-04T15:18:37.433Z,32.42
2023-05-04T15:21:43.786Z,32.03
2023-05-04T15:24:49.539Z,32.30
2023-05-04T15:27:56.271Z,30.91
2023-05-04T15:31:07.516Z,30.40
2023-05-04T15:34:16.187Z,30.17
2023-05-04T15:37:25.949Z,29.14
2023-05-04T15:40:32.552Z,28.28
2023-05-04T15:43:38.815Z,28.27
2023-05-04T15:46:47.976Z,28.00
2023-05-04T15:49:53.450Z,28.00
2023-05-04T15:53:00.034Z,27.38
2023-05-04T15:56:06.324Z,26.07
2023-05-04T15:59:13.381Z,25.89
2023-05-04T16:02:22.564Z,26.03
2023-05-04T16:05:29.157Z,25.68
2023-05-04T16:08:34.688Z,26.19
2023-05-04T16:11:41.131Z,26.61
2023-05-04T16:14:46.907Z,26.29
2023-05-04T16:17:56.350Z,26.12
2023-05-04T16:21:02.030Z,25.93
2023-05-04T16:24:10.389Z,25.78
2023-05-04T16:27:16.612Z,25.90
2023-05-04T16:30:26.421Z,25.69
2023-05-04T16:33:35.046Z,25.42
2023-05-04T16:36:41.436Z,25.58
2023-05-04T16:39:47.155Z,25.60
2023-05-04T16:42:53.967Z,25.53
2023-05-04T16:45:59.755Z,25.33
2023-05-04T16:49:10.499Z,25.85
2023-05-04T16:52:16.877Z,25.96
2023-05-04T16:55:23.925Z,26.54
2023-05-04T16:58:30.936Z,27.23
2023-05-04T17:01:38.464Z,27.14
2023-05-04T17:04:47.042Z,27.83
2023-05-04T17:07:54.363Z,27.59
2023-05-04T17:11:02.101Z,28.81
2023-05-04T17:14:08.627Z,28.87
2023-05-04T17:17:14.348Z,29.48
2023-05-04T17:20:28.839Z,29.38
2023-05-04T17:23:35.432Z,30.17
2023-05-04T17:26:42.313Z,30.47
2023-05-04T17:29:48.191Z,30.83
2023-05-04T17:32:57.436Z,31.25
2023-05-04T17:36:07.971Z,31.13
2023-05-04T17:39:14.786Z,31.83
2023-05-04T17:42:20.588Z,31.76
2023-05-04T17:45:28.276Z,32.34
2023-05-04T17:48:36.618Z,32.44
2023-05-04T17:51:46.289Z,32.69
2023-05-04T17:54:52.061Z,33.14
2023-05-04T17:57:58.572Z,33.47
2023-05-04T18:01:04.585Z,33.37
2023-05-04T18:04:11.586Z,33.77
2023-05-04T18:07:20.431Z,34.58
2023-05-04T18:10:27.469Z,34.26
2023-05-04T18:13:33.299Z,34.77
2023-05-04T18:16:40.197Z,35.30
2023-05-04T18:19:46.120Z,36.06
2023-05-04T18:22:56.080Z,36.29
2023-05-04T18:26:01.950Z,36.78
2023-05-04T18:29:18.297Z,37.05
2023-05-04T18:32:25.231Z,36.92
2023-05-04T18:35:33.824Z,37.03
2023-05-04T18:38:42.816Z,37.68
2023-05-04T18:41:49.845Z,38.37
2023-05-04T18:44:58.749Z,38.10
2023-05-04T18:48:05.717Z,38.83
2023-05-04T18:51:14.969Z,38.58
2023-05-04T18:54:25.648Z,39.06
2023-05-04T18:57:32.462Z,39.26
2023-05-04T19:00:40.763Z,39.37
2023-05-04T19:03:47.336Z,39.44
2023-05-04T19:06:57.237Z,39.35
2023-05-04T19:10:09.324Z,39.67
2023-05-04T19:13:17.131Z,39.53
2023-05-04T19:16:25.129Z,39.91
2023-05-04T19:19:34.051Z,39.72
2023-05-04T19:22:41.666Z,39.97
2023-05-04T19:25:51.805Z,40.06
2023-05-04T19:28:58.093Z,40.14
2023-05-04T19:32:15.620Z,40.48
2023-05-04T19:35:31.077Z,40.38
2023-05-04T19:38:38.159Z,40.70
2023-05-04T19:41:47.817Z,40.52
2023-05-04T19:44:56.387Z,40.73
2023-05-04T19:48:03.897Z,40.62
2023-05-04T19:51:14.343Z,40.65
2023-05-04T19:54:20.893Z,41.05
2023-05-04T19:57:32.205Z,41.05
2023-05-04T20:00:38.348Z,41.18
2023-05-04T20:03:48.083Z,41.25
2023-05-04T20:06:55.841Z,41.33
2023-05-04T20:10:02.843Z,41.25
2023-05-04T20:13:15.616Z,41.55
2023-05-04T20:16:24.434Z,41.30
2023-05-04T20:19:30.376Z,41.45
2023-05-04T20:22:38.915Z,41.46
2023-05-04T20:25:46.424Z,41.93
2023-05-04T20:28:56.438Z,41.62
2023-05-04T20:32:03.328Z,41.76
2023-05-04T20:35:12.075Z,41.89
2023-05-04T20:38:18.702Z,41.68
2023-05-04T20:41:25.781Z,41.92
2023-05-04T20:44:34.431Z,42.27
2023-05-04T20:47:43.053Z,42.60
2023-05-04T20:50:49.461Z,42.66
2023-05-04T20:53:57.336Z,42.53
2023-05-04T20:57:03.577Z,42.58
2023-05-04T21:00:15.660Z,42.56
2023-05-04T21:03:21.581Z,42.55
2023-05-04T21:06:28.348Z,43.06
2023-05-04T21:09:34.362Z,43.39
2023-05-04T21:12:41.009Z,42.82
2023-05-04T21:15:51.750Z,43.30
2023-05-04T21:18:58.381Z,43.10
2023-05-04T21:22:04.291Z,42.99
2023-05-04T21:25:12.181Z,42.96
2023-05-04T21:28:17.713Z,43.43
2023-05-04T21:31:27.072Z,43.67
2023-05-04T21:34:32.651Z,43.76
2023-05-04T21:37:39.249Z,43.33
2023-05-04T21:40:44.896Z,43.76
2023-05-04T21:43:51.941Z,44.21
2023-05-04T21:47:01.393Z,44.00
2023-05-04T21:50:09.241Z,44.39
2023-05-04T21:53:15.018Z,44.29
2023-05-04T21:56:21.411Z,44.55
2023-05-04T21:59:27.563Z,44.42
2023-05-04T22:02:36.792Z,44.06
2023-05-04T22:05:42.364Z,44.21
2023-05-04T22:08:48.824Z,44.52
2023-05-04T22:11:56.042Z,44.92
2023-05-04T22:15:02.391Z,44.70
2023-05-04T22:18:10.731Z,44.74
2023-05-04T22:21:17.031Z,45.44
2023-05-04T22:24:22.764Z,44.52
2023-05-04T22:27:29.307Z,45.09
2023-05-04T22:30:34.887Z,44.96
2023-05-04T22:33:44.092Z,44.91
2023-05-04T22:36:49.818Z,44.56
2023-05-04T22:39:56.185Z,44.90
2023-05-04T22:43:01.660Z,45.26
2023-05-04T22:46:08.400Z,45.52
2023-05-04T22:49:17.588Z,45.78
2023-05-04T22:52:23.943Z,44.76
2023-05-04T22:55:29.448Z,45.91
2023-05-04T22:58:35.809Z,45.87
2023-05-04T23:01:43.707Z,45.80
2023-05-04T23:04:53.381Z,46.02
2023-05-04T23:07:58.828Z,45.75
2023-05-04T23:11:05.387Z,46.28
2023-05-04T23:14:11.644Z,46.69
2023-05-04T23:17:18.224Z,45.86
2023-05-04T23:20:26.545Z,45.90
2023-05-04T23:23:32.851Z,46.00
2023-05-04T23:26:38.333Z,46.66
2023-05-04T23:29:44.944Z,47.10
2023-05-04T23:32:50.716Z,47.05
2023-05-04T23:36:02.931Z,47.28
2023-05-04T23:39:08.771Z,46.97
2023-05-04T23:42:15.150Z,47.38
2023-05-04T23:45:21.011Z,47.27
2023-05-04T23:48:27.333Z,47.43
2023-05-04T23:51:35.980Z,48.07
2023-05-04T23:54:42.286Z,48.23
2023-05-04T23:57:47.739Z,48.17
